sensor_id;sensor_type;location;lat;lon;timestamp;pressure;altitude;pressure_sealevel;temperature;humidity
6096;BME280;25081;42.698;23.298;2022-09-09T00:00:14;95440.91;;;18.02;70.65
6096;BME280;25081;42.698;23.298;2022-09-09T00:02:26;95440.91;;;18.02;70.65
6096;BME280;25081;42.698;23.298;2022-09-09T00:04:36;95453.59;;;18.05;70.99
6096;BME280;25081;42.698;23.298;2022-09-09T00:06:49;95441.16;;;17.96;71.10
6096;BME280;25081;42.698;23.298;2022-09-09T00:09:02;95439.55;;;18.00;71.18
6096;BME280;25081;42.698;23.298;2022-09-09T00:11:12;95439.55;;;18.00;71.18
6096;BME280;25081;42.698;23.298;2022-09-09T00:13:24;95437.88;;;17.94;70.74
6096;BME280;25081;42.698;23.298;2022-09-09T00:15:36;95442.17;;;17.87;71.09
6096;BME280;25081;42.698;23.298;2022-09-09T00:17:47;95447.30;;;17.86;71.46
6096;BME280;25081;42.698;23.298;2022-09-09T00:19:56;95447.30;;;17.86;71.46
6096;BME280;25081;42.698;23.298;2022-09-09T00:22:12;95424.15;;;17.61;72.00
6096;BME280;25081;42.698;23.298;2022-09-09T00:24:23;95424.15;;;17.61;72.00
6096;BME280;25081;42.698;23.298;2022-09-09T00:26:32;95432.22;;;17.58;72.56
6096;BME280;25081;42.698;23.298;2022-09-09T00:28:45;95420.05;;;17.56;72.76
6096;BME280;25081;42.698;23.298;2022-09-09T00:30:54;95417.23;;;17.70;72.45
6096;BME280;25081;42.698;23.298;2022-09-09T00:33:10;95418.05;;;17.70;72.32
6096;BME280;25081;42.698;23.298;2022-09-09T00:35:22;95416.16;;;17.71;72.88
6096;BME280;25081;42.698;23.298;2022-09-09T00:37:32;95416.16;;;17.71;72.88
6096;BME280;25081;42.698;23.298;2022-09-09T00:39:43;95402.72;;;17.46;73.74
6096;BME280;25081;42.698;23.298;2022-09-09T00:41:57;95402.72;;;17.46;73.74
6096;BME280;25081;42.698;23.298;2022-09-09T00:44:13;95401.44;;;17.54;73.03
6096;BME280;25081;42.698;23.298;2022-09-09T00:46:32;95403.10;;;17.58;72.69
6096;BME280;25081;42.698;23.298;2022-09-09T00:48:44;95405.30;;;17.66;72.89
6096;BME280;25081;42.698;23.298;2022-09-09T00:50:55;95410.14;;;17.64;73.17
6096;BME280;25081;42.698;23.298;2022-09-09T00:53:11;95410.14;;;17.64;73.17
6096;BME280;25081;42.698;23.298;2022-09-09T00:55:24;95409.31;;;17.58;73.20
6096;BME280;25081;42.698;23.298;2022-09-09T00:57:32;95403.86;;;17.53;73.62
6096;BME280;25081;42.698;23.298;2022-09-09T00:59:47;95403.86;;;17.53;73.62
6096;BME280;25081;42.698;23.298;2022-09-09T01:01:57;95407.69;;;17.57;73.39
6096;BME280;25081;42.698;23.298;2022-09-09T01:04:08;95408.98;;;17.52;73.68
6096;BME280;25081;42.698;23.298;2022-09-09T01:06:20;95410.95;;;17.64;73.78
6096;BME280;25081;42.698;23.298;2022-09-09T01:08:42;95410.95;;;17.64;73.78
6096;BME280;25081;42.698;23.298;2022-09-09T01:10:53;95416.05;;;17.61;73.68
6096;BME280;25081;42.698;23.298;2022-09-09T01:13:04;95411.73;;;17.60;73.84
6096;BME280;25081;42.698;23.298;2022-09-09T01:15:15;95409.78;;;17.50;74.24
6096;BME280;25081;42.698;23.298;2022-09-09T01:17:26;95420.76;;;17.41;74.78
6096;BME280;25081;42.698;23.298;2022-09-09T01:19:40;95420.76;;;17.41;74.78
6096;BME280;25081;42.698;23.298;2022-09-09T01:21:50;95421.42;;;17.26;75.15
6096;BME280;25081;42.698;23.298;2022-09-09T01:24:15;95407.38;;;17.19;75.93
6096;BME280;25081;42.698;23.298;2022-09-09T01:26:26;95407.64;;;17.20;76.12
6096;BME280;25081;42.698;23.298;2022-09-09T01:28:37;95400.04;;;17.14;75.83
6096;BME280;25081;42.698;23.298;2022-09-09T01:30:47;95402.00;;;17.22;76.31
6096;BME280;25081;42.698;23.298;2022-09-09T01:32:58;95402.00;;;17.22;76.31
6096;BME280;25081;42.698;23.298;2022-09-09T01:35:11;95413.03;;;17.20;75.88
6096;BME280;25081;42.698;23.298;2022-09-09T01:37:20;95408.05;;;17.07;76.15
6096;BME280;25081;42.698;23.298;2022-09-09T01:39:30;95422.19;;;17.19;76.15
6096;BME280;25081;42.698;23.298;2022-09-09T01:41:41;95430.20;;;17.11;76.26
6096;BME280;25081;42.698;23.298;2022-09-09T01:43:52;95430.41;;;17.07;76.29
6096;BME280;25081;42.698;23.298;2022-09-09T01:46:02;95410.37;;;16.96;76.20
6096;BME280;25081;42.698;23.298;2022-09-09T01:48:12;95410.37;;;16.96;76.20
6096;BME280;25081;42.698;23.298;2022-09-09T01:50:23;95427.94;;;17.01;75.59
6096;BME280;25081;42.698;23.298;2022-09-09T01:52:33;95432.61;;;17.10;74.84
6096;BME280;25081;42.698;23.298;2022-09-09T01:54:44;95432.61;;;17.10;74.84
6096;BME280;25081;42.698;23.298;2022-09-09T01:56:58;95435.06;;;17.14;74.23
6096;BME280;25081;42.698;23.298;2022-09-09T01:59:18;95432.92;;;17.16;74.07
6096;BME280;25081;42.698;23.298;2022-09-09T02:01:28;95433.98;;;17.13;73.93
6096;BME280;25081;42.698;23.298;2022-09-09T02:03:38;95428.31;;;17.12;73.85
6096;BME280;25081;42.698;23.298;2022-09-09T02:05:51;95428.59;;;17.13;73.79
6096;BME280;25081;42.698;23.298;2022-09-09T02:08:03;95433.72;;;17.14;73.77
6096;BME280;25081;42.698;23.298;2022-09-09T02:10:15;95431.70;;;17.00;74.46
6096;BME280;25081;42.698;23.298;2022-09-09T02:12:22;95431.70;;;17.00;74.46
6096;BME280;25081;42.698;23.298;2022-09-09T02:14:34;95424.02;;;16.86;75.80
6096;BME280;25081;42.698;23.298;2022-09-09T02:16:44;95412.87;;;16.78;76.17
6096;BME280;25081;42.698;23.298;2022-09-09T02:18:55;95407.97;;;16.70;76.81
6096;BME280;25081;42.698;23.298;2022-09-09T02:21:05;95417.98;;;16.77;76.61
6096;BME280;25081;42.698;23.298;2022-09-09T02:23:16;95425.63;;;16.63;77.14
6096;BME280;25081;42.698;23.298;2022-09-09T02:25:28;95413.51;;;16.63;77.15
6096;BME280;25081;42.698;23.298;2022-09-09T02:27:37;95416.55;;;16.69;77.34
6096;BME280;25081;42.698;23.298;2022-09-09T02:29:48;95421.88;;;16.67;77.31
6096;BME280;25081;42.698;23.298;2022-09-09T02:32:00;95429.86;;;16.59;77.65
6096;BME280;25081;42.698;23.298;2022-09-09T02:34:09;95437.64;;;16.55;77.61
6096;BME280;25081;42.698;23.298;2022-09-09T02:36:20;95424.70;;;16.52;77.78
6096;BME280;25081;42.698;23.298;2022-09-09T02:38:31;95427.69;;;16.56;77.43
6096;BME280;25081;42.698;23.298;2022-09-09T02:40:41;95437.11;;;16.56;77.04
6096;BME280;25081;42.698;23.298;2022-09-09T02:42:51;95434.44;;;16.58;76.68
6096;BME280;25081;42.698;23.298;2022-09-09T02:45:02;95441.31;;;16.69;76.31
6096;BME280;25081;42.698;23.298;2022-09-09T02:47:18;95433.37;;;16.59;76.55
6096;BME280;25081;42.698;23.298;2022-09-09T02:49:30;95435.56;;;16.60;76.88
6096;BME280;25081;42.698;23.298;2022-09-09T02:51:44;95429.29;;;16.54;76.34
6096;BME280;25081;42.698;23.298;2022-09-09T02:53:53;95430.48;;;16.42;76.50
6096;BME280;25081;42.698;23.298;2022-09-09T02:56:04;95430.48;;;16.42;76.50
6096;BME280;25081;42.698;23.298;2022-09-09T02:58:14;95432.06;;;16.40;77.14
6096;BME280;25081;42.698;23.298;2022-09-09T03:00:27;95432.41;;;16.46;76.49
6096;BME280;25081;42.698;23.298;2022-09-09T03:02:37;95440.28;;;16.50;76.03
6096;BME280;25081;42.698;23.298;2022-09-09T03:04:48;95438.84;;;16.43;75.41
6096;BME280;25081;42.698;23.298;2022-09-09T03:06:59;95432.02;;;16.35;76.10
6096;BME280;25081;42.698;23.298;2022-09-09T03:09:10;95432.02;;;16.35;76.10
6096;BME280;25081;42.698;23.298;2022-09-09T03:11:20;95444.91;;;16.33;76.08
6096;BME280;25081;42.698;23.298;2022-09-09T03:13:31;95438.05;;;16.45;75.69
6096;BME280;25081;42.698;23.298;2022-09-09T03:15:41;95437.29;;;16.49;75.43
6096;BME280;25081;42.698;23.298;2022-09-09T03:17:52;95441.81;;;16.44;75.66
6096;BME280;25081;42.698;23.298;2022-09-09T03:20:03;95436.20;;;16.48;75.32
6096;BME280;25081;42.698;23.298;2022-09-09T03:22:13;95436.20;;;16.48;75.32
6096;BME280;25081;42.698;23.298;2022-09-09T03:24:24;95427.44;;;16.36;76.03
6096;BME280;25081;42.698;23.298;2022-09-09T03:26:34;95427.44;;;16.36;76.03
6096;BME280;25081;42.698;23.298;2022-09-09T03:28:45;95428.23;;;16.34;75.94
6096;BME280;25081;42.698;23.298;2022-09-09T03:31:00;95427.95;;;16.33;75.90
6096;BME280;25081;42.698;23.298;2022-09-09T03:33:11;95436.41;;;16.41;75.32
6096;BME280;25081;42.698;23.298;2022-09-09T03:35:21;95432.30;;;16.36;75.17
6096;BME280;25081;42.698;23.298;2022-09-09T03:37:32;95429.75;;;16.27;75.71
6096;BME280;25081;42.698;23.298;2022-09-09T03:39:42;95432.73;;;16.09;76.06
6096;BME280;25081;42.698;23.298;2022-09-09T03:41:53;95429.91;;;15.98;76.70
6096;BME280;25081;42.698;23.298;2022-09-09T03:44:04;95431.95;;;16.11;76.98
6096;BME280;25081;42.698;23.298;2022-09-09T03:46:14;95432.59;;;16.18;76.62
6096;BME280;25081;42.698;23.298;2022-09-09T03:48:25;95430.72;;;16.18;76.43
6096;BME280;25081;42.698;23.298;2022-09-09T03:50:35;95436.43;;;16.22;76.63
6096;BME280;25081;42.698;23.298;2022-09-09T03:52:46;95438.61;;;16.25;76.38
6096;BME280;25081;42.698;23.298;2022-09-09T03:54:56;95440.21;;;16.23;76.09
6096;BME280;25081;42.698;23.298;2022-09-09T03:57:07;95441.28;;;16.22;76.10
6096;BME280;25081;42.698;23.298;2022-09-09T03:59:17;95442.84;;;16.21;76.24
6096;BME280;25081;42.698;23.298;2022-09-09T04:01:28;95443.03;;;16.34;76.34
6096;BME280;25081;42.698;23.298;2022-09-09T04:03:38;95439.66;;;16.43;75.72
6096;BME280;25081;42.698;23.298;2022-09-09T04:05:50;95443.59;;;16.36;75.54
6096;BME280;25081;42.698;23.298;2022-09-09T04:08:01;95448.03;;;16.25;76.48
6096;BME280;25081;42.698;23.298;2022-09-09T04:10:12;95445.59;;;16.23;76.19
6096;BME280;25081;42.698;23.298;2022-09-09T04:12:22;95450.47;;;16.26;76.12
6096;BME280;25081;42.698;23.298;2022-09-09T04:14:33;95444.96;;;16.38;75.80
6096;BME280;25081;42.698;23.298;2022-09-09T04:16:43;95446.64;;;16.42;75.74
6096;BME280;25081;42.698;23.298;2022-09-09T04:18:54;95436.45;;;16.46;75.42
6096;BME280;25081;42.698;23.298;2022-09-09T04:21:05;95434.11;;;16.52;75.11
6096;BME280;25081;42.698;23.298;2022-09-09T04:23:16;95437.27;;;16.47;75.43
6096;BME280;25081;42.698;23.298;2022-09-09T04:25:27;95441.66;;;16.53;75.63
6096;BME280;25081;42.698;23.298;2022-09-09T04:27:37;95446.92;;;16.67;75.81
6096;BME280;25081;42.698;23.298;2022-09-09T04:29:48;95446.92;;;16.67;75.81
6096;BME280;25081;42.698;23.298;2022-09-09T04:31:58;95450.79;;;16.71;75.08
6096;BME280;25081;42.698;23.298;2022-09-09T04:34:09;95450.87;;;16.59;75.39
6096;BME280;25081;42.698;23.298;2022-09-09T04:36:19;95446.75;;;16.71;75.19
6096;BME280;25081;42.698;23.298;2022-09-09T04:38:30;95446.75;;;16.71;75.19
6096;BME280;25081;42.698;23.298;2022-09-09T04:40:42;95441.73;;;16.80;75.04
6096;BME280;25081;42.698;23.298;2022-09-09T04:42:53;95449.23;;;16.78;75.23
6096;BME280;25081;42.698;23.298;2022-09-09T04:45:05;95448.23;;;16.84;74.81
6096;BME280;25081;42.698;23.298;2022-09-09T04:47:15;95444.63;;;16.76;75.12
6096;BME280;25081;42.698;23.298;2022-09-09T04:49:25;95447.01;;;16.70;75.17
6096;BME280;25081;42.698;23.298;2022-09-09T04:51:36;95442.07;;;16.88;75.76
6096;BME280;25081;42.698;23.298;2022-09-09T04:53:47;95442.07;;;16.88;75.76
6096;BME280;25081;42.698;23.298;2022-09-09T04:56:04;95433.23;;;18.29;69.20
6096;BME280;25081;42.698;23.298;2022-09-09T04:58:14;95430.73;;;18.65;67.40
6096;BME280;25081;42.698;23.298;2022-09-09T05:00:24;95417.35;;;19.26;65.41
6096;BME280;25081;42.698;23.298;2022-09-09T05:02:37;95430.30;;;20.15;63.19
6096;BME280;25081;42.698;23.298;2022-09-09T05:04:48;95430.30;;;20.15;63.19
6096;BME280;25081;42.698;23.298;2022-09-09T05:06:59;95428.48;;;20.85;60.16
6096;BME280;25081;42.698;23.298;2022-09-09T05:09:10;95412.55;;;21.18;58.96
6096;BME280;25081;42.698;23.298;2022-09-09T05:11:21;95403.95;;;21.79;56.30
6096;BME280;25081;42.698;23.298;2022-09-09T05:13:31;95404.91;;;22.49;54.52
6096;BME280;25081;42.698;23.298;2022-09-09T05:15:41;95412.77;;;23.14;52.44
6096;BME280;25081;42.698;23.298;2022-09-09T05:17:52;95420.76;;;23.65;51.29
6096;BME280;25081;42.698;23.298;2022-09-09T05:20:05;95422.22;;;23.01;52.35
6096;BME280;25081;42.698;23.298;2022-09-09T05:22:19;95420.84;;;23.57;51.40
6096;BME280;25081;42.698;23.298;2022-09-09T05:24:30;95418.39;;;24.07;50.15
6096;BME280;25081;42.698;23.298;2022-09-09T05:26:40;95408.86;;;24.92;47.74
6096;BME280;25081;42.698;23.298;2022-09-09T05:28:51;95409.83;;;24.85;47.69
6096;BME280;25081;42.698;23.298;2022-09-09T05:31:02;95414.31;;;24.07;49.59
6096;BME280;25081;42.698;23.298;2022-09-09T05:33:12;95413.02;;;24.48;48.31
6096;BME280;25081;42.698;23.298;2022-09-09T05:35:23;95415.49;;;24.75;47.31
6096;BME280;25081;42.698;23.298;2022-09-09T05:37:33;95416.23;;;24.78;46.21
6096;BME280;25081;42.698;23.298;2022-09-09T05:39:44;95415.73;;;24.05;48.09
6096;BME280;25081;42.698;23.298;2022-09-09T05:41:54;95411.95;;;25.02;46.38
6096;BME280;25081;42.698;23.298;2022-09-09T05:44:05;95408.39;;;25.85;44.21
6096;BME280;25081;42.698;23.298;2022-09-09T05:46:17;95412.32;;;25.81;44.01
6096;BME280;25081;42.698;23.298;2022-09-09T05:48:28;95415.91;;;25.21;45.19
6096;BME280;25081;42.698;23.298;2022-09-09T05:50:39;95425.56;;;23.87;48.74
6096;BME280;25081;42.698;23.298;2022-09-09T05:52:49;95418.60;;;23.05;51.14
6096;BME280;25081;42.698;23.298;2022-09-09T05:55:00;95419.93;;;22.89;50.93
6096;BME280;25081;42.698;23.298;2022-09-09T05:57:10;95423.38;;;21.94;53.84
6096;BME280;25081;42.698;23.298;2022-09-09T05:59:21;95424.52;;;21.88;53.90
6096;BME280;25081;42.698;23.298;2022-09-09T06:01:33;95425.59;;;21.16;56.19
6096;BME280;25081;42.698;23.298;2022-09-09T06:03:43;95434.95;;;20.90;57.66
6096;BME280;25081;42.698;23.298;2022-09-09T06:05:59;95436.25;;;21.00;57.87
6096;BME280;25081;42.698;23.298;2022-09-09T06:08:10;95441.98;;;20.91;57.92
6096;BME280;25081;42.698;23.298;2022-09-09T06:10:21;95444.96;;;20.92;57.85
6096;BME280;25081;42.698;23.298;2022-09-09T06:12:31;95445.19;;;21.00;58.19
6096;BME280;25081;42.698;23.298;2022-09-09T06:14:42;95436.47;;;20.41;58.64
6096;BME280;25081;42.698;23.298;2022-09-09T06:16:52;95439.25;;;20.13;59.56
6096;BME280;25081;42.698;23.298;2022-09-09T06:19:03;95437.88;;;20.28;59.31
6096;BME280;25081;42.698;23.298;2022-09-09T06:21:15;95440.28;;;20.43;59.02
6096;BME280;25081;42.698;23.298;2022-09-09T06:23:24;95309.20;;;19.51;59.26
6096;BME280;25081;42.698;23.298;2022-09-09T06:25:35;95442.23;;;20.12;59.91
6096;BME280;25081;42.698;23.298;2022-09-09T06:27:50;95440.35;;;20.10;59.76
6096;BME280;25081;42.698;23.298;2022-09-09T06:30:01;95440.18;;;20.76;58.10
6096;BME280;25081;42.698;23.298;2022-09-09T06:32:11;95445.59;;;22.01;53.76
6096;BME280;25081;42.698;23.298;2022-09-09T06:34:22;95436.72;;;22.22;52.70
6096;BME280;25081;42.698;23.298;2022-09-09T06:36:33;95430.91;;;23.92;49.51
6096;BME280;25081;42.698;23.298;2022-09-09T06:38:43;95420.91;;;25.52;45.26
6096;BME280;25081;42.698;23.298;2022-09-09T06:40:54;95418.50;;;26.18;43.54
6096;BME280;25081;42.698;23.298;2022-09-09T06:43:05;95414.28;;;26.43;42.70
6096;BME280;25081;42.698;23.298;2022-09-09T06:45:15;95417.12;;;26.18;43.43
6096;BME280;25081;42.698;23.298;2022-09-09T06:47:27;95414.88;;;24.92;45.15
6096;BME280;25081;42.698;23.298;2022-09-09T06:49:36;95411.02;;;25.79;43.33
6096;BME280;25081;42.698;23.298;2022-09-09T06:51:47;95415.85;;;26.46;41.94
6096;BME280;25081;42.698;23.298;2022-09-09T06:53:58;95423.17;;;28.44;37.68
6096;BME280;25081;42.698;23.298;2022-09-09T06:56:19;95428.05;;;29.00;35.73
6096;BME280;25081;42.698;23.298;2022-09-09T06:58:29;95427.02;;;27.70;38.13
6096;BME280;25081;42.698;23.298;2022-09-09T07:00:40;95429.13;;;26.70;39.90
6096;BME280;25081;42.698;23.298;2022-09-09T07:02:50;95430.34;;;27.24;39.84
6096;BME280;25081;42.698;23.298;2022-09-09T07:05:00;95427.86;;;28.82;36.63
6096;BME280;25081;42.698;23.298;2022-09-09T07:07:11;95428.64;;;29.50;35.09
6096;BME280;25081;42.698;23.298;2022-09-09T07:09:22;95431.94;;;28.99;35.83
6096;BME280;25081;42.698;23.298;2022-09-09T07:11:37;95435.25;;;28.98;36.26
6096;BME280;25081;42.698;23.298;2022-09-09T07:13:43;95429.78;;;29.04;35.72
6096;BME280;25081;42.698;23.298;2022-09-09T07:15:54;95423.19;;;29.56;34.72
6096;BME280;25081;42.698;23.298;2022-09-09T07:18:04;95420.19;;;29.76;34.77
6096;BME280;25081;42.698;23.298;2022-09-09T07:20:15;95415.84;;;29.75;33.85
6096;BME280;25081;42.698;23.298;2022-09-09T07:22:26;95405.53;;;29.36;34.94
6096;BME280;25081;42.698;23.298;2022-09-09T07:24:36;95413.28;;;30.30;33.82
6096;BME280;25081;42.698;23.298;2022-09-09T07:26:47;95422.81;;;29.22;34.39
6096;BME280;25081;42.698;23.298;2022-09-09T07:28:57;95421.60;;;29.11;34.93
6096;BME280;25081;42.698;23.298;2022-09-09T07:31:12;95411.56;;;29.98;33.34
6096;BME280;25081;42.698;23.298;2022-09-09T07:33:19;95410.92;;;28.09;36.80
6096;BME280;25081;42.698;23.298;2022-09-09T07:35:30;95411.91;;;27.79;36.37
6096;BME280;25081;42.698;23.298;2022-09-09T07:37:40;95410.53;;;27.87;36.74
6096;BME280;25081;42.698;23.298;2022-09-09T07:39:51;95410.31;;;27.52;37.64
6096;BME280;25081;42.698;23.298;2022-09-09T07:42:02;95407.35;;;29.02;35.05
6096;BME280;25081;42.698;23.298;2022-09-09T07:44:13;95412.44;;;28.13;36.12
6096;BME280;25081;42.698;23.298;2022-09-09T07:46:23;95418.84;;;27.93;37.03
6096;BME280;25081;42.698;23.298;2022-09-09T07:48:33;95421.24;;;29.06;35.17
6096;BME280;25081;42.698;23.298;2022-09-09T07:50:44;95421.80;;;30.31;32.71
6096;BME280;25081;42.698;23.298;2022-09-09T07:52:54;95418.59;;;29.81;33.35
6096;BME280;25081;42.698;23.298;2022-09-09T07:55:06;95422.52;;;29.86;33.86
6096;BME280;25081;42.698;23.298;2022-09-09T07:57:16;95418.52;;;29.48;33.86
6096;BME280;25081;42.698;23.298;2022-09-09T07:59:27;95412.47;;;29.63;34.03
6096;BME280;25081;42.698;23.298;2022-09-09T08:01:38;95418.81;;;29.76;33.68
6096;BME280;25081;42.698;23.298;2022-09-09T08:03:52;95408.58;;;30.69;32.16
6096;BME280;25081;42.698;23.298;2022-09-09T08:06:02;95402.95;;;32.01;29.99
6096;BME280;25081;42.698;23.298;2022-09-09T08:08:12;95404.41;;;32.11;29.97
6096;BME280;25081;42.698;23.298;2022-09-09T08:10:25;95405.33;;;31.34;31.20
6096;BME280;25081;42.698;23.298;2022-09-09T08:12:36;95405.83;;;30.69;32.48
6096;BME280;25081;42.698;23.298;2022-09-09T08:14:46;95408.21;;;31.20;31.26
6096;BME280;25081;42.698;23.298;2022-09-09T08:16:57;95411.41;;;31.16;31.60
6096;BME280;25081;42.698;23.298;2022-09-09T08:21:32;95409.27;;;32.67;29.46
6096;BME280;25081;42.698;23.298;2022-09-09T08:23:43;95410.22;;;32.97;28.66
6096;BME280;25081;42.698;23.298;2022-09-09T08:25:53;95407.96;;;32.93;28.87
6096;BME280;25081;42.698;23.298;2022-09-09T08:28:04;95405.36;;;33.25;28.26
6096;BME280;25081;42.698;23.298;2022-09-09T08:30:15;95402.28;;;32.64;29.22
6096;BME280;25081;42.698;23.298;2022-09-09T08:32:25;95403.11;;;31.52;30.35
6096;BME280;25081;42.698;23.298;2022-09-09T08:34:36;95397.87;;;30.10;32.67
6096;BME280;25081;42.698;23.298;2022-09-09T08:36:47;95401.83;;;28.73;35.28
6096;BME280;25081;42.698;23.298;2022-09-09T08:38:57;95406.59;;;27.56;37.62
6096;BME280;25081;42.698;23.298;2022-09-09T08:41:38;95404.95;;;27.99;37.35
6096;BME280;25081;42.698;23.298;2022-09-09T08:43:48;95400.45;;;28.73;35.93
6096;BME280;25081;42.698;23.298;2022-09-09T08:45:59;95400.08;;;28.83;35.46
6096;BME280;25081;42.698;23.298;2022-09-09T08:48:19;95394.41;;;28.97;35.19
6096;BME280;25081;42.698;23.298;2022-09-09T08:50:29;95364.67;;;29.88;33.73
6096;BME280;25081;42.698;23.298;2022-09-09T08:52:40;95385.61;;;31.02;32.57
6096;BME280;25081;42.698;23.298;2022-09-09T08:54:50;95390.83;;;32.12;30.78
6096;BME280;25081;42.698;23.298;2022-09-09T08:57:00;95388.11;;;32.28;29.71
6096;BME280;25081;42.698;23.298;2022-09-09T08:59:11;95385.97;;;32.59;29.38
6096;BME280;25081;42.698;23.298;2022-09-09T09:01:38;95384.45;;;32.02;30.63
6096;BME280;25081;42.698;23.298;2022-09-09T09:03:50;95384.66;;;31.16;31.53
6096;BME280;25081;42.698;23.298;2022-09-09T09:06:01;95381.83;;;31.00;32.50
6096;BME280;25081;42.698;23.298;2022-09-09T09:08:15;95389.86;;;30.93;31.84
6096;BME280;25081;42.698;23.298;2022-09-09T09:10:30;95382.73;;;31.29;31.65
6096;BME280;25081;42.698;23.298;2022-09-09T09:12:40;95382.86;;;31.67;31.44
6096;BME280;25081;42.698;23.298;2022-09-09T09:14:48;95385.70;;;32.26;30.32
6096;BME280;25081;42.698;23.298;2022-09-09T09:16:59;95384.58;;;31.99;30.37
6096;BME280;25081;42.698;23.298;2022-09-09T09:19:11;95385.57;;;30.47;33.23
6096;BME280;25081;42.698;23.298;2022-09-09T09:21:21;95386.20;;;28.65;35.62
6096;BME280;25081;42.698;23.298;2022-09-09T09:23:33;95393.39;;;27.67;38.16
6096;BME280;25081;42.698;23.298;2022-09-09T09:25:43;95389.59;;;27.48;38.47
6096;BME280;25081;42.698;23.298;2022-09-09T09:27:57;95389.73;;;27.08;38.82
6096;BME280;25081;42.698;23.298;2022-09-09T09:30:14;95378.70;;;26.74;40.16
6096;BME280;25081;42.698;23.298;2022-09-09T09:32:25;95383.53;;;27.05;40.01
6096;BME280;25081;42.698;23.298;2022-09-09T09:34:35;95388.96;;;26.97;39.57
6096;BME280;25081;42.698;23.298;2022-09-09T09:36:51;95393.34;;;26.78;40.37
6096;BME280;25081;42.698;23.298;2022-09-09T09:38:57;95383.21;;;27.07;39.85
6096;BME280;25081;42.698;23.298;2022-09-09T09:41:07;95383.63;;;27.37;39.00
6096;BME280;25081;42.698;23.298;2022-09-09T09:43:21;95375.73;;;27.27;39.80
6096;BME280;25081;42.698;23.298;2022-09-09T09:45:33;95371.16;;;27.51;38.96
6096;BME280;25081;42.698;23.298;2022-09-09T09:47:43;95371.72;;;28.56;36.86
6096;BME280;25081;42.698;23.298;2022-09-09T09:49:54;95366.87;;;28.61;36.44
6096;BME280;25081;42.698;23.298;2022-09-09T09:52:05;95367.70;;;28.91;36.33
6096;BME280;25081;42.698;23.298;2022-09-09T09:54:18;95362.83;;;28.97;35.82
6096;BME280;25081;42.698;23.298;2022-09-09T09:56:28;95360.37;;;28.89;35.86
6096;BME280;25081;42.698;23.298;2022-09-09T09:58:49;95357.63;;;28.66;36.99
6096;BME280;25081;42.698;23.298;2022-09-09T10:00:51;95356.34;;;28.02;38.63
6096;BME280;25081;42.698;23.298;2022-09-09T10:03:01;95350.59;;;27.69;39.75
6096;BME280;25081;42.698;23.298;2022-09-09T10:05:15;95347.71;;;27.04;40.45
6096;BME280;25081;42.698;23.298;2022-09-09T10:07:25;95355.59;;;27.41;40.15
6096;BME280;25081;42.698;23.298;2022-09-09T10:09:35;95357.63;;;27.72;39.66
6096;BME280;25081;42.698;23.298;2022-09-09T10:11:46;95362.16;;;28.00;38.69
6096;BME280;25081;42.698;23.298;2022-09-09T10:13:59;95370.15;;;28.31;38.06
6096;BME280;25081;42.698;23.298;2022-09-09T10:18:47;95370.77;;;28.05;38.87
6096;BME280;25081;42.698;23.298;2022-09-09T10:20:58;95368.30;;;27.88;39.01
6096;BME280;25081;42.698;23.298;2022-09-09T10:23:13;95374.05;;;27.55;39.67
6096;BME280;25081;42.698;23.298;2022-09-09T10:25:35;95374.20;;;27.06;40.83
6096;BME280;25081;42.698;23.298;2022-09-09T10:27:50;95369.98;;;26.72;41.44
6096;BME280;25081;42.698;23.298;2022-09-09T10:30:09;95369.16;;;26.54;42.36
6096;BME280;25081;42.698;23.298;2022-09-09T10:32:34;95369.71;;;26.62;42.64
6096;BME280;25081;42.698;23.298;2022-09-09T10:34:55;95369.73;;;26.71;42.10
6096;BME280;25081;42.698;23.298;2022-09-09T10:37:06;95370.89;;;26.78;41.50
6096;BME280;25081;42.698;23.298;2022-09-09T10:39:18;95369.70;;;26.91;41.48
6096;BME280;25081;42.698;23.298;2022-09-09T10:41:38;95369.22;;;26.89;41.80
6096;BME280;25081;42.698;23.298;2022-09-09T10:43:59;95375.16;;;26.73;42.08
6096;BME280;25081;42.698;23.298;2022-09-09T10:46:10;95377.09;;;26.53;42.59
6096;BME280;25081;42.698;23.298;2022-09-09T10:48:34;95374.75;;;26.49;43.10
6096;BME280;25081;42.698;23.298;2022-09-09T10:50:47;95381.07;;;26.38;43.19
6096;BME280;25081;42.698;23.298;2022-09-09T10:52:58;95381.72;;;26.44;43.47
6096;BME280;25081;42.698;23.298;2022-09-09T10:55:10;95382.70;;;26.68;42.68
6096;BME280;25081;42.698;23.298;2022-09-09T10:57:24;95377.36;;;26.63;43.15
6096;BME280;25081;42.698;23.298;2022-09-09T10:59:35;95381.73;;;26.64;43.17
6096;BME280;25081;42.698;23.298;2022-09-09T11:01:45;95383.08;;;26.44;43.41
6096;BME280;25081;42.698;23.298;2022-09-09T11:03:57;95373.34;;;26.40;43.83
6096;BME280;25081;42.698;23.298;2022-09-09T11:06:09;95370.68;;;26.58;43.27
6096;BME280;25081;42.698;23.298;2022-09-09T11:08:18;95369.23;;;26.60;42.97
6096;BME280;25081;42.698;23.298;2022-09-09T11:10:33;95368.40;;;26.51;43.33
6096;BME280;25081;42.698;23.298;2022-09-09T11:12:39;95373.79;;;26.53;43.44
6096;BME280;25081;42.698;23.298;2022-09-09T11:14:51;95373.59;;;26.41;44.35
6096;BME280;25081;42.698;23.298;2022-09-09T11:17:03;95365.56;;;26.34;44.77
6096;BME280;25081;42.698;23.298;2022-09-09T11:19:16;95365.36;;;26.21;45.32
6096;BME280;25081;42.698;23.298;2022-09-09T11:21:27;95364.63;;;26.18;45.20
6096;BME280;25081;42.698;23.298;2022-09-09T11:23:38;95357.40;;;26.22;46.06
6096;BME280;25081;42.698;23.298;2022-09-09T11:25:48;95357.30;;;26.47;45.11
6096;BME280;25081;42.698;23.298;2022-09-09T11:28:05;95355.30;;;26.88;43.99
6096;BME280;25081;42.698;23.298;2022-09-09T11:30:19;95353.26;;;27.19;43.75
6096;BME280;25081;42.698;23.298;2022-09-09T11:35:37;95336.16;;;26.96;44.31
6096;BME280;25081;42.698;23.298;2022-09-09T11:37:55;95330.88;;;27.08;43.74
6096;BME280;25081;42.698;23.298;2022-09-09T11:40:20;95322.25;;;27.30;43.52
6096;BME280;25081;42.698;23.298;2022-09-09T11:42:30;95315.91;;;27.23;43.99
6096;BME280;25081;42.698;23.298;2022-09-09T11:44:41;95309.45;;;27.36;43.34